Time;durP1;ratioP1;P1;durP2;ratioP2;P2;SDS_P1;SDS_P2;PMS_P1;PMS_P2;Temp;Humidity;BMP_temperature;BMP_pressure;BME280_temperature;BME280_humidity;BME280_pressure;Samples;Min_cycle;Max_cycle;Signal;HPM_P1;HPM_P2
2022/01/22 00:01:53;;;;;;;1.30;1.13;;;0.20;96.30;;;;;;4896407;29;20469;-72
2022/01/22 00:04:18;;;;;;;1.37;1.10;;;0.20;96.30;;;;;;4896425;29;20182;-73
2022/01/22 00:06:44;;;;;;;1.30;0.93;;;0.20;96.30;;;;;;4896525;29;20717;-72
2022/01/22 00:09:10;;;;;;;1.10;1.00;;;0.20;96.30;;;;;;4896539;29;20563;-73
2022/01/22 00:11:39;;;;;;;1.00;0.80;;;0.20;96.30;;;;;;4896429;29;20288;-73
2022/01/22 00:14:24;;;;;;;1.37;1.10;;;0.20;96.30;;;;;;4897392;29;20791;-73
2022/01/22 00:16:52;;;;;;;1.10;0.90;;;0.20;96.30;;;;;;4897928;29;20421;-73
2022/01/22 00:19:17;;;;;;;1.30;1.13;;;0.20;96.30;;;;;;4882966;29;20433;-73
2022/01/22 00:21:43;;;;;;;1.13;0.87;;;0.20;96.30;;;;;;4899738;29;20995;-73
2022/01/22 00:24:11;;;;;;;1.00;0.90;;;0.20;96.30;;;;;;4899848;29;20177;-74
2022/01/22 00:26:36;;;;;;;1.03;0.93;;;0.20;96.30;;;;;;4899366;29;20818;-73
2022/01/22 00:29:02;;;;;;;1.27;1.00;;;0.20;96.30;;;;;;4882821;29;20429;-73
2022/01/22 00:31:28;;;;;;;1.03;0.87;;;0.20;96.30;;;;;;4899681;29;20197;-73
2022/01/22 00:33:53;;;;;;;1.60;1.07;;;0.20;96.30;;;;;;4899616;29;20429;-73
2022/01/22 00:36:19;;;;;;;1.00;0.90;;;0.20;96.30;;;;;;4913276;29;20192;-73
2022/01/22 00:38:44;;;;;;;1.13;1.03;;;0.20;96.30;;;;;;4918406;29;20228;-73
2022/01/22 00:41:10;;;;;;;1.70;0.83;;;0.20;96.30;;;;;;4918223;29;20287;-73
2022/01/22 00:43:36;;;;;;;1.10;0.80;;;0.20;96.30;;;;;;4918370;29;20173;-73
2022/01/22 00:46:02;;;;;;;1.50;1.00;;;0.20;96.30;;;;;;4918041;29;20416;-73
2022/01/22 00:48:27;;;;;;;0.90;0.80;;;0.20;96.30;;;;;;4918199;29;20244;-74
2022/01/22 00:50:55;;;;;;;1.27;1.00;;;0.20;96.30;;;;;;4918219;29;20697;-73
2022/01/22 00:53:22;;;;;;;0.90;0.70;;;0.30;96.30;;;;;;4918089;29;20199;-73
2022/01/22 00:55:47;;;;;;;0.90;0.70;;;0.20;96.30;;;;;;4917755;29;20412;-73
2022/01/22 00:58:13;;;;;;;0.97;0.70;;;0.20;96.30;;;;;;4901102;29;20523;-73
2022/01/22 05:02:33;;;;;;;172.77;4.67;;;1.10;96.30;;;;;;4865424;29;20872;-69
2022/01/22 05:04:58;;;;;;;330.40;7.20;;;1.10;96.30;;;;;;4867433;29;20502;-69
2022/01/22 05:07:24;;;;;;;395.70;8.60;;;1.20;96.30;;;;;;4880250;29;20178;-69
2022/01/22 05:09:49;;;;;;;337.97;6.77;;;1.10;96.30;;;;;;4880325;29;20184;-69
2022/01/22 05:12:15;;;;;;;361.43;7.87;;;1.10;96.30;;;;;;4880056;29;20226;-69
2022/01/22 05:14:40;;;;;;;393.07;9.00;;;1.10;96.30;;;;;;4879906;29;20182;-67
2022/01/22 05:17:07;;;;;;;427.90;9.40;;;1.10;96.30;;;;;;4880100;29;20185;-69
2022/01/22 05:19:45;;;;;;;369.70;8.90;;;1.10;96.30;;;;;;4862892;29;20257;-67
2022/01/22 05:37:58;;;;;;;1.37;1.00;;;1.30;96.30;;;;;;4879831;29;20778;-67
2022/01/22 05:40:24;;;;;;;1.23;1.10;;;1.10;96.30;;;;;;4860742;29;20942;-66
2022/01/22 05:42:49;;;;;;;1.93;1.00;;;1.10;96.30;;;;;;4861098;29;20974;-66
2022/01/22 05:45:15;;;;;;;1.07;0.97;;;1.10;96.30;;;;;;4860602;29;20419;-66
2022/01/22 05:47:41;;;;;;;0.93;0.80;;;1.10;96.30;;;;;;4859508;29;20589;-67
2022/01/22 05:50:13;;;;;;;1.17;0.67;;;1.10;96.30;;;;;;4860644;29;20639;-67
2022/01/22 05:52:53;;;;;;;0.90;0.80;;;1.00;96.30;;;;;;4860448;29;20247;-66
2022/01/22 06:05:41;;;;;;;2.00;0.90;;;0.80;96.30;;;;;;4895789;29;20513;-67
2022/01/22 06:08:06;;;;;;;2.17;1.00;;;0.80;96.30;;;;;;4895970;29;20930;-67
2022/01/22 06:10:33;;;;;;;3.30;1.27;;;0.80;96.30;;;;;;4896880;29;20249;-68
2022/01/22 06:13:18;;;;;;;1.23;1.13;;;0.80;96.30;;;;;;4896950;29;20673;-67
2022/01/22 06:15:44;;;;;;;1.70;1.10;;;0.80;96.30;;;;;;4895679;29;20440;-67
2022/01/22 06:18:09;;;;;;;1.20;1.00;;;0.90;96.30;;;;;;4880645;29;20460;-67
2022/01/22 06:20:35;;;;;;;1.10;1.00;;;0.90;96.30;;;;;;4897316;29;20201;-68
2022/01/22 06:23:02;;;;;;;1.20;0.90;;;0.80;96.30;;;;;;4897301;29;20711;-68
2022/01/22 06:25:27;;;;;;;1.23;0.93;;;0.80;96.30;;;;;;4896294;29;20207;-67
2022/01/22 06:27:53;;;;;;;1.27;1.03;;;0.80;96.30;;;;;;4897268;29;20782;-67
2022/01/22 06:30:20;;;;;;;1.30;1.00;;;0.90;96.30;;;;;;4897204;29;20176;-68
2022/01/22 06:32:45;;;;;;;1.30;1.20;;;0.90;96.30;;;;;;4897044;29;20179;-67
2022/01/22 06:35:11;;;;;;;3.93;0.93;;;0.80;96.30;;;;;;4896476;29;20524;-68
2022/01/22 06:37:37;;;;;;;1.17;0.80;;;0.80;96.30;;;;;;4897161;29;20626;-68
2022/01/22 06:42:32;;;;;;;1.40;1.30;;;0.80;96.30;;;;;;4896597;29;20224;-69
2022/01/22 06:44:58;;;;;;;1.30;1.00;;;0.80;96.30;;;;;;4896492;29;20428;-69
2022/01/22 06:47:25;;;;;;;1.20;0.87;;;0.80;96.30;;;;;;4896929;29;20775;-68
2022/01/22 06:49:51;;;;;;;1.73;1.10;;;0.80;96.30;;;;;;4896852;29;20446;-68
2022/01/22 06:52:17;;;;;;;1.63;1.00;;;0.80;96.30;;;;;;4896990;29;20437;-68
2022/01/22 06:54:44;;;;;;;1.27;1.03;;;0.80;96.30;;;;;;4896202;29;20233;-68
2022/01/22 06:57:10;;;;;;;1.70;1.00;;;0.80;96.30;;;;;;4896988;29;20328;-69
2022/01/22 06:59:36;;;;;;;2.20;1.50;;;0.80;96.30;;;;;;4896872;29;20420;-69
2022/01/22 07:02:02;;;;;;;2.33;1.00;;;0.80;96.30;;;;;;4896628;29;20453;-69
2022/01/22 07:04:29;;;;;;;1.60;1.37;;;0.80;96.30;;;;;;4896505;29;20534;-69
2022/01/22 07:06:55;;;;;;;1.97;1.57;;;0.80;96.30;;;;;;4896864;29;20983;-68
2022/01/22 07:09:22;;;;;;;3.73;1.87;;;0.80;96.30;;;;;;4896663;29;20488;-69
2022/01/22 07:11:48;;;;;;;2.50;2.07;;;0.80;96.30;;;;;;4896577;29;20280;-69
2022/01/22 07:14:14;;;;;;;1.37;0.80;;;0.80;96.30;;;;;;4896544;29;20572;-69
2022/01/22 07:16:40;;;;;;;1.97;1.63;;;0.80;96.30;;;;;;4896221;29;20536;-69
2022/01/22 07:19:05;;;;;;;3.13;1.40;;;0.80;96.30;;;;;;4896750;29;20416;-68
2022/01/22 07:21:31;;;;;;;1.77;1.03;;;0.80;96.30;;;;;;4910876;29;20653;-68
2022/01/22 07:26:30;;;;;;;2.80;1.10;;;0.80;96.30;;;;;;4899050;29;20405;-69
2022/01/22 07:28:56;;;;;;;6.83;1.93;;;0.80;96.30;;;;;;4900530;29;20409;-69
2022/01/22 07:31:26;;;;;;;2.23;1.77;;;0.80;96.30;;;;;;4900262;29;20501;-69
2022/01/22 07:33:52;;;;;;;2.17;1.20;;;0.80;96.30;;;;;;4900535;29;20469;-68
2022/01/22 07:36:18;;;;;;;2.17;1.97;;;0.80;96.30;;;;;;4886097;29;20922;-69
2022/01/22 07:38:43;;;;;;;1.53;1.43;;;0.80;96.30;;;;;;4881454;29;20182;-69
2022/01/22 07:41:10;;;;;;;3.80;2.23;;;0.80;96.30;;;;;;4881278;29;20581;-69
2022/01/22 07:43:36;;;;;;;2.17;1.77;;;0.90;96.30;;;;;;4881524;29;20162;-69
2022/01/22 07:46:02;;;;;;;3.83;2.27;;;0.90;96.30;;;;;;4898339;29;20445;-70
2022/01/22 07:48:27;;;;;;;2.40;1.60;;;1.00;96.30;;;;;;4899605;29;20508;-71
2022/01/22 07:50:53;;;;;;;3.13;2.10;;;1.00;96.30;;;;;;4900238;29;20549;-71
2022/01/22 07:53:18;;;;;;;2.27;2.07;;;1.10;96.30;;;;;;4900256;29;20177;-71
2022/01/22 07:55:44;;;;;;;2.30;2.10;;;1.10;96.30;;;;;;4900084;29;20170;-71
2022/01/22 07:58:11;;;;;;;2.37;1.63;;;1.10;96.30;;;;;;4900035;29;20272;-71
2022/01/22 08:00:37;;;;;;;2.23;2.03;;;1.10;96.30;;;;;;4899899;29;20193;-70
2022/01/22 08:03:04;;;;;;;2.77;2.40;;;1.10;96.30;;;;;;4914684;29;20469;-71
2022/01/22 08:05:29;;;;;;;6.40;2.63;;;1.10;96.30;;;;;;4883008;29;20200;-71
2022/01/22 08:07:55;;;;;;;5.20;3.10;;;1.10;96.30;;;;;;4900205;29;20409;-70
2022/01/22 08:10:20;;;;;;;2.73;2.37;;;1.10;96.30;;;;;;4899900;29;20188;-71
2022/01/22 08:12:49;;;;;;;3.03;2.70;;;1.10;96.30;;;;;;4899972;29;20252;-70
2022/01/22 08:15:16;;;;;;;5.90;2.80;;;1.10;96.30;;;;;;4899781;29;20173;-70
2022/01/22 08:17:42;;;;;;;3.37;2.70;;;1.10;96.30;;;;;;4899900;29;20421;-71
2022/01/22 08:20:11;;;;;;;3.97;3.37;;;1.10;96.30;;;;;;4899783;29;20439;-71
2022/01/22 08:22:37;;;;;;;5.13;3.10;;;1.20;96.30;;;;;;4899729;29;20547;-71
2022/01/22 08:25:03;;;;;;;5.10;3.47;;;1.20;96.30;;;;;;4898851;29;20424;-70
2022/01/22 08:29:55;;;;;;;3.93;2.47;;;1.20;96.30;;;;;;4899719;29;20630;-71
2022/01/22 08:37:49;;;;;;;6.20;3.20;;;1.20;96.30;;;;;;4899653;29;20972;-71
2022/01/22 08:40:15;;;;;;;10.60;3.33;;;1.20;96.30;;;;;;4899475;29;20500;-70
2022/01/22 08:42:41;;;;;;;3.10;2.70;;;1.20;96.30;;;;;;4898106;29;20593;-70
2022/01/22 08:45:07;;;;;;;3.93;2.83;;;1.20;96.30;;;;;;4898793;29;20222;-71
2022/01/22 08:47:33;;;;;;;2.80;2.50;;;1.30;96.30;;;;;;4899194;29;20256;-71
2022/01/22 08:49:59;;;;;;;6.17;3.57;;;1.30;96.30;;;;;;4898728;29;20919;-71
2022/01/22 08:52:29;;;;;;;4.90;3.40;;;1.40;96.30;;;;;;4899297;29;20208;-71
2022/01/22 08:54:55;;;;;;;2.80;2.43;;;1.40;96.30;;;;;;4898601;29;20161;-71
2022/01/22 08:57:20;;;;;;;3.80;3.17;;;1.40;96.30;;;;;;4898932;29;20417;-71
2022/01/22 08:59:46;;;;;;;3.67;3.37;;;1.40;96.30;;;;;;4899004;29;20539;-71
2022/01/22 09:02:13;;;;;;;10.80;4.00;;;1.50;96.30;;;;;;4898725;29;20240;-71
2022/01/22 09:04:38;;;;;;;5.90;3.07;;;1.60;96.30;;;;;;4898017;29;20189;-75
2022/01/22 09:07:04;;;;;;;2.70;1.80;;;1.70;96.30;;;;;;4898886;29;20984;-72
2022/01/22 09:09:29;;;;;;;2.73;2.30;;;1.80;96.30;;;;;;4898741;29;20173;-72
2022/01/22 09:11:55;;;;;;;4.33;2.67;;;1.80;96.30;;;;;;4898741;29;20200;-72
2022/01/22 09:14:22;;;;;;;2.00;1.80;;;1.80;96.30;;;;;;4913081;29;20180;-71
2022/01/22 09:16:50;;;;;;;2.27;2.07;;;1.80;96.30;;;;;;4907371;29;20454;-72
2022/01/22 09:19:16;;;;;;;2.90;2.50;;;1.80;96.30;;;;;;4880591;29;20441;-72
2022/01/22 09:21:44;;;;;;;8.47;2.63;;;1.80;96.30;;;;;;4898702;29;20456;-72
2022/01/22 09:24:11;;;;;;;9.63;3.10;;;1.80;96.30;;;;;;4898731;29;20154;-72
2022/01/22 09:26:37;;;;;;;3.77;2.07;;;1.90;96.30;;;;;;4912251;29;20444;-72
2022/01/22 09:29:04;;;;;;;4.53;2.50;;;1.80;96.30;;;;;;4897443;29;20460;-71
2022/01/22 09:31:30;;;;;;;2.80;2.30;;;1.80;96.30;;;;;;4898004;29;20532;-72
2022/01/22 09:33:59;;;;;;;4.03;2.20;;;1.90;96.30;;;;;;4892668;29;20490;-71
2022/01/22 09:36:26;;;;;;;2.07;1.87;;;1.90;96.30;;;;;;4893586;29;20430;-71
2022/01/22 09:38:52;;;;;;;11.90;2.77;;;1.90;96.30;;;;;;4897859;29;20424;-70
2022/01/22 09:41:18;;;;;;;4.50;2.47;;;1.90;96.30;;;;;;4893386;29;20609;-70
2022/01/22 09:43:44;;;;;;;3.70;2.00;;;2.00;96.30;;;;;;4898334;29;20413;-70
2022/01/22 09:46:11;;;;;;;2.10;1.40;;;1.90;96.30;;;;;;4897701;29;20425;-70
2022/01/22 09:48:41;;;;;;;2.20;1.23;;;1.80;96.30;;;;;;4887036;29;20432;-70
2022/01/22 09:51:06;;;;;;;2.03;1.60;;;1.80;96.30;;;;;;4879570;29;20442;-70
2022/01/22 09:53:32;;;;;;;4.03;2.30;;;1.80;96.30;;;;;;4879616;29;20922;-70
2022/01/22 09:55:57;;;;;;;1.60;1.50;;;1.90;96.30;;;;;;4878939;29;20185;-71
2022/01/22 09:58:23;;;;;;;4.60;2.00;;;1.80;96.30;;;;;;4879348;29;20182;-70
2022/01/22 10:00:49;;;;;;;4.63;1.63;;;1.80;96.30;;;;;;4879194;29;20189;-70
2022/01/22 10:03:20;;;;;;;3.60;1.73;;;1.80;96.30;;;;;;4879407;29;21050;-70
2022/01/22 10:05:46;;;;;;;6.07;2.10;;;1.70;96.30;;;;;;4878707;29;20205;-71
2022/01/22 10:08:31;;;;;;;2.60;1.90;;;1.60;96.30;;;;;;4879150;29;20422;-71
2022/01/22 10:10:58;;;;;;;3.57;2.50;;;1.50;96.30;;;;;;4877846;29;20542;-71
2022/01/22 10:13:38;;;;;;;3.23;2.07;;;1.50;96.30;;;;;;4879067;29;20418;-71
2022/01/22 10:16:23;;;;;;;5.33;2.30;;;1.60;96.30;;;;;;4878395;29;20410;-72
2022/01/22 10:19:10;;;;;;;7.17;2.10;;;1.80;96.30;;;;;;4862410;29;20414;-70
2022/01/22 10:21:37;;;;;;;3.60;2.47;;;1.90;96.30;;;;;;4878907;29;20616;-70
2022/01/22 10:24:27;;;;;;;9.43;3.30;;;1.90;96.30;;;;;;4862348;29;20418;-70
2022/01/22 10:27:21;;;;;;;7.63;2.40;;;1.90;96.30;;;;;;4879087;29;20413;-70
2022/01/22 10:29:53;;;;;;;4.23;2.17;;;1.90;96.30;;;;;;4878971;29;20453;-71
2022/01/22 10:32:24;;;;;;;6.80;2.80;;;1.80;96.30;;;;;;4878784;29;20457;-71
2022/01/22 10:35:06;;;;;;;6.07;2.77;;;1.70;96.30;;;;;;4880674;29;20809;-70
2022/01/22 10:37:31;;;;;;;5.83;2.57;;;1.80;96.30;;;;;;4885965;29;20413;-73
2022/01/22 10:40:27;;;;;;;6.27;2.60;;;1.70;96.30;;;;;;4897519;29;20914;-72
2022/01/22 10:43:22;;;;;;;5.93;2.73;;;1.80;96.30;;;;;;4880610;29;20209;-73
2022/01/22 10:48:58;;;;;;;5.37;2.70;;;1.90;96.30;;;;;;4878923;29;20756;-72
2022/01/22 10:51:25;;;;;;;2.80;2.27;;;1.90;96.30;;;;;;4878597;29;20964;-72
2022/01/22 10:53:59;;;;;;;3.00;2.40;;;2.00;96.30;;;;;;4878583;29;20479;-72
2022/01/22 10:56:26;;;;;;;3.07;2.10;;;2.10;96.30;;;;;;4890810;29;20413;-73
2022/01/22 10:59:06;;;;;;;6.83;2.13;;;2.10;96.30;;;;;;4897307;29;20787;-73
2022/01/22 11:01:46;;;;;;;6.20;2.00;;;2.20;96.30;;;;;;4889040;29;20544;-73
2022/01/22 11:04:15;;;;;;;6.83;2.60;;;2.20;96.30;;;;;;4892189;29;20445;-73
2022/01/22 11:06:47;;;;;;;2.97;1.80;;;2.30;96.30;;;;;;4877932;29;20921;-71
2022/01/22 11:09:13;;;;;;;9.57;3.47;;;2.40;96.30;;;;;;4895325;29;20429;-71
2022/01/22 11:11:41;;;;;;;4.27;2.10;;;2.30;96.30;;;;;;4896941;29;20929;-72
2022/01/22 11:14:08;;;;;;;6.23;2.47;;;2.40;96.30;;;;;;4880161;29;20421;-72
2022/01/22 11:16:36;;;;;;;5.50;2.17;;;2.30;96.30;;;;;;4896560;29;20486;-72
2022/01/22 11:19:02;;;;;;;4.10;1.97;;;2.30;96.30;;;;;;4896874;29;20504;-73
2022/01/22 11:21:30;;;;;;;6.00;2.27;;;2.20;96.30;;;;;;4896577;29;20465;-73
2022/01/22 11:23:55;;;;;;;3.30;1.73;;;2.20;96.30;;;;;;4896865;29;20977;-71
2022/01/22 11:26:21;;;;;;;4.33;2.30;;;2.10;96.30;;;;;;4896352;29;20417;-74
2022/01/22 11:28:51;;;;;;;2.30;1.90;;;2.20;96.30;;;;;;4896450;29;20168;-76
2022/01/22 11:31:17;;;;;;;3.23;2.17;;;2.30;96.30;;;;;;4879740;29;20208;-75
2022/01/22 11:33:46;;;;;;;3.93;2.20;;;2.40;96.30;;;;;;4896674;29;20425;-75
2022/01/22 11:36:17;;;;;;;4.10;2.73;;;2.50;96.30;;;;;;4895911;29;20421;-74
2022/01/22 11:38:56;;;;;;;3.87;1.80;;;2.40;96.30;;;;;;4911375;29;20428;-74
2022/01/22 11:41:23;;;;;;;4.70;1.73;;;2.40;96.30;;;;;;4896478;29;20478;-75
2022/01/22 11:43:52;;;;;;;2.43;2.00;;;2.50;96.30;;;;;;4911255;29;20993;-75
2022/01/22 11:46:32;;;;;;;5.57;1.90;;;2.60;96.30;;;;;;4910454;29;20469;-73
2022/01/22 11:49:24;;;;;;;3.30;1.90;;;2.60;96.30;;;;;;4910718;29;20437;-73
2022/01/22 11:52:13;;;;;;;1.83;1.37;;;2.60;96.30;;;;;;4896413;29;20437;-73
2022/01/22 11:54:55;;;;;;;2.03;1.43;;;2.60;96.30;;;;;;4895783;29;20432;-74
2022/01/22 11:57:23;;;;;;;2.67;1.80;;;2.60;96.30;;;;;;4896291;29;20417;-73
2022/01/22 12:00:08;;;;;;;1.93;1.53;;;2.60;96.30;;;;;;4896352;29;20405;-73
2022/01/22 12:02:35;;;;;;;2.27;1.50;;;2.60;96.30;;;;;;4879279;29;20555;-73
2022/01/22 12:05:03;;;;;;;2.23;1.77;;;2.60;96.30;;;;;;4895627;29;20803;-73
2022/01/22 12:07:35;;;;;;;4.30;2.00;;;2.70;96.30;;;;;;4896575;29;20788;-76
2022/01/22 12:10:15;;;;;;;2.40;1.70;;;2.70;96.30;;;;;;4896323;29;20429;-73
2022/01/22 12:15:31;;;;;;;3.17;1.90;;;2.70;96.30;;;;;;4899672;29;20501;-74
2022/01/22 12:18:05;;;;;;;3.17;2.10;;;2.80;96.30;;;;;;4899706;29;20874;-74
2022/01/22 12:23:11;;;;;;;4.83;1.53;;;2.50;96.30;;;;;;4899980;29;20479;-73
2022/01/22 12:25:40;;;;;;;8.60;2.30;;;2.60;96.30;;;;;;4913208;29;20924;-73
2022/01/22 12:28:07;;;;;;;3.43;2.00;;;2.60;96.30;;;;;;4913366;29;20879;-74
2022/01/22 12:30:36;;;;;;;2.53;2.20;;;2.40;96.30;;;;;;4899382;29;20447;-74
2022/01/22 12:33:02;;;;;;;2.70;1.90;;;2.50;96.30;;;;;;4903683;29;20472;-74
2022/01/22 12:35:40;;;;;;;7.00;3.63;;;2.60;96.30;;;;;;4891833;29;20433;-74
2022/01/22 12:43:50;;;;;;;5.47;2.03;;;2.40;96.30;;;;;;4880938;29;20826;-75
2022/01/22 12:46:16;;;;;;;4.20;1.77;;;2.50;96.30;;;;;;4880493;29;20441;-77
2022/01/22 12:48:42;;;;;;;2.13;1.20;;;2.40;96.30;;;;;;4880755;29;20571;-75
2022/01/22 12:51:09;;;;;;;5.53;2.63;;;2.40;96.30;;;;;;4880778;29;20205;-76
2022/01/22 12:53:37;;;;;;;1.40;1.30;;;2.30;96.30;;;;;;4892000;29;21126;-78
2022/01/22 12:56:35;;;;;;;4.20;1.70;;;2.30;96.30;;;;;;4898014;29;20420;-76
2022/01/22 12:58:49;;;;;;;4.43;1.40;;;2.50;96.30;;;;;;4897600;29;20964;-78
2022/01/22 13:01:26;;;;;;;2.63;1.37;;;2.70;96.30;;;;;;4881868;29;20444;-77
2022/01/22 13:03:54;;;;;;;3.00;1.47;;;2.80;96.30;;;;;;4898222;29;20305;-75
2022/01/22 13:06:24;;;;;;;2.10;1.70;;;2.70;96.30;;;;;;4880382;29;20422;-75
2022/01/22 13:08:54;;;;;;;2.43;1.67;;;2.60;96.30;;;;;;4897933;29;21185;-77
2022/01/22 13:11:25;;;;;;;5.37;1.80;;;2.50;96.30;;;;;;4881748;29;20460;-75
2022/01/22 13:13:50;;;;;;;3.20;1.50;;;2.40;96.30;;;;;;4899760;29;20418;-76
2022/01/22 13:16:17;;;;;;;1.37;1.27;;;2.40;96.30;;;;;;4899049;29;20787;-75
2022/01/22 13:18:43;;;;;;;3.67;1.67;;;2.30;96.30;;;;;;4883014;29;20177;-76
2022/01/22 13:23:47;;;;;;;3.17;1.27;;;2.10;96.30;;;;;;5089416;23;20495;-76
2022/01/22 13:26:13;;;;;;;2.50;1.30;;;2.00;96.30;;;;;;4916426;29;20408;-75
2022/01/22 13:28:39;;;;;;;3.40;1.60;;;2.10;96.30;;;;;;4916535;29;20507;-74
2022/01/22 13:31:14;;;;;;;3.07;1.50;;;2.10;96.30;;;;;;4899377;29;20433;-75
2022/01/22 13:33:49;;;;;;;3.00;1.77;;;2.10;96.30;;;;;;4916620;29;20970;-75
2022/01/22 13:36:33;;;;;;;4.53;1.43;;;2.20;96.30;;;;;;4899436;29;20420;-76
2022/01/22 13:39:32;;;;;;;3.20;1.20;;;2.20;96.30;;;;;;4916045;29;20428;-73
2022/01/22 13:47:47;;;;;;;7.83;1.70;;;2.20;96.30;;;;;;4917599;29;20737;-72
2022/01/22 13:50:14;;;;;;;2.03;1.20;;;2.20;96.30;;;;;;4917214;29;20412;-72
2022/01/22 13:52:40;;;;;;;2.30;1.60;;;2.20;96.30;;;;;;4899780;29;20431;-74
2022/01/22 13:55:06;;;;;;;2.70;1.60;;;2.20;96.30;;;;;;4916730;29;20842;-72
2022/01/22 13:57:37;;;;;;;2.57;1.97;;;2.20;96.30;;;;;;4917136;29;20505;-73
2022/01/22 14:00:12;;;;;;;3.43;2.10;;;2.10;96.30;;;;;;4900340;29;20172;-74
2022/01/22 14:03:04;;;;;;;4.43;1.50;;;2.10;96.30;;;;;;4901255;29;20495;-74
2022/01/22 14:05:30;;;;;;;3.63;1.80;;;2.00;96.30;;;;;;4905250;29;20964;-76
2022/01/22 14:08:06;;;;;;;6.30;1.73;;;2.00;96.30;;;;;;4890144;29;20969;-79
2022/01/22 14:10:33;;;;;;;3.00;1.70;;;2.00;96.30;;;;;;4898037;29;20451;-76
2022/01/22 14:13:09;;;;;;;4.80;1.90;;;2.00;96.30;;;;;;4899124;29;20421;-78
2022/01/22 14:15:41;;;;;;;2.80;1.60;;;2.00;96.30;;;;;;4909392;29;20454;-78
2022/01/22 14:18:19;;;;;;;2.80;1.43;;;2.10;96.30;;;;;;4910079;29;20420;-76
2022/01/22 14:20:49;;;;;;;3.80;2.07;;;2.10;96.30;;;;;;4908983;29;20583;-74
2022/01/22 14:23:39;;;;;;;2.50;1.30;;;2.20;96.30;;;;;;4916489;29;20971;-74
2022/01/22 14:26:10;;;;;;;4.00;2.00;;;2.10;96.30;;;;;;4907105;29;20473;-75
2022/01/22 14:28:47;;;;;;;7.60;2.13;;;2.10;96.30;;;;;;4916757;29;21061;-74
2022/01/22 14:31:25;;;;;;;2.40;2.13;;;2.10;96.30;;;;;;4899596;29;20443;-75
2022/01/22 14:33:52;;;;;;;4.23;2.00;;;2.10;96.30;;;;;;4916482;29;20885;-75
2022/01/22 14:36:39;;;;;;;4.30;2.10;;;2.00;96.30;;;;;;4902582;29;20414;-75
2022/01/22 14:39:28;;;;;;;3.10;2.27;;;2.00;96.30;;;;;;4897705;29;20466;-74
2022/01/22 14:44:41;;;;;;;3.63;2.73;;;1.90;96.30;;;;;;4895555;29;20488;-75
2022/01/22 14:47:15;;;;;;;3.80;2.13;;;1.90;96.30;;;;;;4915676;29;20420;-75
2022/01/22 14:49:45;;;;;;;3.30;2.47;;;1.90;96.30;;;;;;4912890;29;20420;-75
2022/01/22 14:52:13;;;;;;;4.47;2.50;;;1.80;96.30;;;;;;4880526;29;20499;-75
2022/01/22 14:54:41;;;;;;;6.37;2.50;;;1.80;96.30;;;;;;4880371;29;20778;-75
2022/01/22 14:57:08;;;;;;;5.30;2.20;;;1.70;96.30;;;;;;4897147;29;20940;-75
2022/01/22 14:59:34;;;;;;;2.80;2.23;;;1.70;96.30;;;;;;4897385;29;20424;-74
2022/01/22 15:02:01;;;;;;;6.70;2.60;;;1.60;96.30;;;;;;4897043;29;20621;-75
2022/01/22 15:04:28;;;;;;;7.23;2.50;;;1.60;96.30;;;;;;4896763;29;20413;-75
2022/01/22 15:06:56;;;;;;;3.70;2.50;;;1.60;96.30;;;;;;4897123;29;20417;-76
2022/01/22 15:09:23;;;;;;;3.33;2.07;;;1.50;96.30;;;;;;4896864;29;21182;-74
2022/01/22 15:11:49;;;;;;;4.40;2.60;;;1.50;96.30;;;;;;4880320;29;20500;-75
2022/01/22 15:14:14;;;;;;;4.53;2.63;;;1.60;96.30;;;;;;4896955;29;20413;-78
2022/01/22 15:16:50;;;;;;;2.73;2.40;;;1.60;96.30;;;;;;4898450;29;20187;-77
2022/01/22 15:19:21;;;;;;;9.83;2.80;;;1.50;96.30;;;;;;4889269;29;20179;-76
2022/01/22 15:21:49;;;;;;;4.67;2.50;;;1.50;96.30;;;;;;4915503;29;20498;-76
2022/01/22 15:24:15;;;;;;;5.27;2.43;;;1.50;96.30;;;;;;4916015;29;20424;-76
2022/01/22 15:26:41;;;;;;;4.00;2.70;;;1.40;96.30;;;;;;4899518;29;20440;-78
2022/01/22 15:29:09;;;;;;;3.97;2.80;;;1.30;96.30;;;;;;4916524;29;20809;-77
2022/01/22 15:31:53;;;;;;;4.13;3.00;;;1.30;96.30;;;;;;4898607;29;20255;-78
2022/01/22 15:34:37;;;;;;;5.03;2.87;;;1.30;96.30;;;;;;4906674;29;20452;-78
2022/01/22 15:37:06;;;;;;;3.83;2.80;;;1.20;96.30;;;;;;4907068;29;20847;-77
2022/01/22 15:39:32;;;;;;;4.10;2.83;;;1.20;96.30;;;;;;4915591;29;20424;-78
2022/01/22 15:41:58;;;;;;;7.37;3.57;;;1.20;96.30;;;;;;4910126;29;20476;-77
2022/01/22 15:44:24;;;;;;;8.73;6.40;;;1.10;96.30;;;;;;4909290;29;20192;-77
2022/01/22 15:46:51;;;;;;;9.00;5.70;;;1.10;96.30;;;;;;4915976;29;20640;-77
2022/01/22 15:49:22;;;;;;;7.20;5.10;;;1.10;96.30;;;;;;4901769;29;20421;-76
2022/01/22 15:51:56;;;;;;;12.37;4.83;;;1.10;96.30;;;;;;4918891;29;20432;-76
2022/01/22 15:54:22;;;;;;;5.80;3.90;;;1.00;96.30;;;;;;4918339;29;20439;-77
2022/01/22 15:56:48;;;;;;;8.60;4.73;;;1.00;96.30;;;;;;4918423;29;21085;-75
2022/01/22 15:59:15;;;;;;;4.97;3.50;;;1.00;96.30;;;;;;4908969;29;20432;-75
2022/01/22 16:01:43;;;;;;;5.20;3.83;;;0.90;96.30;;;;;;4905440;29;20479;-77
2022/01/22 16:04:09;;;;;;;5.27;3.87;;;0.90;96.30;;;;;;4908768;29;20416;-76
2022/01/22 16:07:19;;;;;;;4.83;3.80;;;0.90;96.30;;;;;;4909145;29;20794;-77
2022/01/22 16:09:29;;;;;;;7.43;4.40;;;0.90;96.30;;;;;;4900817;29;20766;-76
2022/01/22 16:11:55;;;;;;;6.67;4.07;;;0.90;96.30;;;;;;4894674;29;20588;-77
2022/01/22 16:14:21;;;;;;;7.17;4.70;;;0.90;96.30;;;;;;4907012;29;20516;-76
2022/01/22 16:16:48;;;;;;;7.30;4.90;;;0.90;96.30;;;;;;4908649;29;20184;-76
2022/01/22 16:19:15;;;;;;;7.73;5.00;;;0.90;96.30;;;;;;4907625;29;20696;-75
2022/01/22 16:21:42;;;;;;;7.33;5.00;;;1.00;96.30;;;;;;4909120;29;21067;-75
2022/01/22 16:24:09;;;;;;;9.03;5.10;;;1.00;96.30;;;;;;4910594;29;21625;-76
2022/01/22 16:26:35;;;;;;;11.30;4.50;;;1.00;96.30;;;;;;4906568;29;20936;-76
2022/01/22 16:29:01;;;;;;;22.07;5.80;;;1.00;96.30;;;;;;4910395;29;20412;-76
2022/01/22 16:31:29;;;;;;;11.60;6.47;;;1.00;96.30;;;;;;4907581;29;20225;-75
2022/01/22 16:33:58;;;;;;;18.00;12.60;;;1.00;96.30;;;;;;4913736;29;20192;-75
2022/01/22 16:36:24;;;;;;;29.30;15.40;;;1.00;96.30;;;;;;4908270;29;20435;-75
2022/01/22 16:38:50;;;;;;;20.67;14.80;;;1.00;96.30;;;;;;4906401;29;20495;-75
2022/01/22 16:41:16;;;;;;;15.33;13.00;;;1.00;96.30;;;;;;4907253;29;20204;-77
2022/01/22 16:44:14;;;;;;;12.00;7.80;;;1.00;96.30;;;;;;4908691;29;20232;-75
2022/01/22 16:46:35;;;;;;;12.90;10.80;;;1.00;96.30;;;;;;4908065;29;20744;-76
2022/01/22 16:54:53;;;;;;;10.33;7.30;;;1.10;96.30;;;;;;4904854;29;20415;-76
2022/01/22 16:57:32;;;;;;;12.70;6.80;;;1.10;96.30;;;;;;4907403;29;20416;-76
2022/01/22 17:00:02;;;;;;;10.03;7.33;;;1.10;96.30;;;;;;4908482;29;20425;-75
2022/01/22 17:02:33;;;;;;;11.23;8.47;;;1.10;96.30;;;;;;4908229;29;20475;-76
2022/01/22 17:05:06;;;;;;;10.93;7.50;;;1.10;96.30;;;;;;4909010;29;20409;-77
2022/01/22 17:15:07;;;;;;;12.00;9.53;;;1.10;96.30;;;;;;4906703;29;20203;-77
2022/01/22 17:17:33;;;;;;;14.23;8.83;;;1.10;96.30;;;;;;4907626;29;20909;-77
2022/01/22 17:19:58;;;;;;;15.87;8.37;;;1.10;96.30;;;;;;4909729;29;20208;-76
2022/01/22 17:22:24;;;;;;;9.30;7.77;;;1.10;96.30;;;;;;4894026;29;20676;-76
2022/01/22 17:24:49;;;;;;;12.73;7.83;;;1.10;96.30;;;;;;4907509;29;20248;-78
2022/01/22 17:27:19;;;;;;;11.53;7.90;;;1.10;96.30;;;;;;4908199;29;20186;-78
2022/01/22 17:29:46;;;;;;;9.90;8.80;;;1.00;96.30;;;;;;4906119;29;20253;-76
2022/01/22 17:32:12;;;;;;;8.63;7.10;;;1.00;96.30;;;;;;4905823;29;20452;-78
2022/01/22 17:34:37;;;;;;;8.50;7.43;;;1.00;96.30;;;;;;4904658;29;20799;-77
2022/01/22 17:37:04;;;;;;;13.40;7.00;;;1.00;96.30;;;;;;4905283;29;20229;-76
2022/01/22 17:39:34;;;;;;;9.00;6.60;;;1.00;96.30;;;;;;4906025;29;20539;-77
2022/01/22 17:42:00;;;;;;;10.70;7.77;;;1.00;96.30;;;;;;4907612;29;20459;-76
2022/01/22 17:44:32;;;;;;;9.73;6.33;;;1.00;96.30;;;;;;4906221;29;20451;-76
2022/01/22 17:47:00;;;;;;;8.33;6.03;;;1.00;96.30;;;;;;4907843;29;20917;-77
2022/01/22 17:49:25;;;;;;;6.73;4.43;;;1.00;96.30;;;;;;4902124;29;20429;-77
2022/01/22 17:51:51;;;;;;;6.93;5.10;;;1.00;96.30;;;;;;4906020;29;20496;-77
2022/01/22 17:54:16;;;;;;;6.10;4.10;;;1.00;96.30;;;;;;4913026;29;20264;-75
2022/01/22 17:56:42;;;;;;;5.20;4.20;;;1.00;96.30;;;;;;4908571;29;20672;-76
2022/01/22 17:59:07;;;;;;;5.67;5.17;;;1.00;96.30;;;;;;4907406;29;20202;-76
2022/01/22 18:01:33;;;;;;;7.40;5.60;;;1.00;96.30;;;;;;4908197;29;20205;-77
2022/01/22 18:04:01;;;;;;;6.43;5.80;;;1.00;96.30;;;;;;4906283;29;20640;-78
2022/01/22 18:06:28;;;;;;;8.00;6.30;;;1.10;96.30;;;;;;4908918;29;20173;-78
2022/01/22 18:08:55;;;;;;;9.27;7.30;;;1.00;96.30;;;;;;4917012;29;20781;-77
2022/01/22 18:11:21;;;;;;;8.10;6.97;;;1.00;96.30;;;;;;4906231;29;20433;-75
2022/01/22 18:13:47;;;;;;;6.90;6.20;;;1.00;96.30;;;;;;4902803;29;20417;-76
2022/01/22 18:16:12;;;;;;;6.20;5.60;;;1.10;96.30;;;;;;4907810;29;20450;-75
2022/01/22 18:18:39;;;;;;;5.50;4.37;;;1.10;96.30;;;;;;4909141;29;20648;-75
2022/01/22 18:21:05;;;;;;;6.23;4.90;;;1.10;96.30;;;;;;4907473;29;20196;-75
2022/01/22 18:23:31;;;;;;;6.40;5.70;;;1.20;96.30;;;;;;4905846;29;20605;-76
2022/01/22 18:25:57;;;;;;;5.97;5.10;;;1.20;96.30;;;;;;4904148;29;20693;-74